createdAt,value
2023-05-24T00:00:14.013Z,0.00
2023-05-24T00:01:04.817Z,0.00
2023-05-24T00:01:55.591Z,0.00
2023-05-24T00:02:46.475Z,0.00
2023-05-24T00:03:37.488Z,0.00
2023-05-24T00:04:28.393Z,0.00
2023-05-24T00:05:19.136Z,0.00
2023-05-24T00:06:09.910Z,0.00
2023-05-24T00:07:00.691Z,0.00
2023-05-24T00:07:51.462Z,0.00
2023-05-24T00:08:42.242Z,0.00
2023-05-24T00:09:33.027Z,0.00
2023-05-24T00:10:23.807Z,0.00
2023-05-24T00:11:14.592Z,0.00
2023-05-24T00:12:05.392Z,0.00
2023-05-24T00:12:56.184Z,0.00
2023-05-24T00:13:46.965Z,0.00
2023-05-24T00:14:37.767Z,0.00
2023-05-24T00:15:28.546Z,0.00
2023-05-24T00:16:19.357Z,0.00
2023-05-24T00:17:10.134Z,0.00
2023-05-24T00:18:00.961Z,0.00
2023-05-24T00:18:51.706Z,0.00
2023-05-24T00:19:42.546Z,0.00
2023-05-24T00:20:33.313Z,0.00
2023-05-24T00:21:24.084Z,0.00
2023-05-24T00:22:14.840Z,0.00
2023-05-24T00:23:05.616Z,0.00
2023-05-24T00:23:56.394Z,0.00
2023-05-24T00:24:47.187Z,0.00
2023-05-24T00:25:37.980Z,0.00
2023-05-24T00:26:28.799Z,0.00
2023-05-24T00:27:19.567Z,0.00
2023-05-24T00:28:10.341Z,0.00
2023-05-24T00:29:01.109Z,0.00
2023-05-24T00:29:51.891Z,0.00
2023-05-24T00:30:43.270Z,0.00
2023-05-24T00:31:34.221Z,0.00
2023-05-24T00:32:24.986Z,0.00
2023-05-24T00:33:15.749Z,0.00
2023-05-24T00:34:06.526Z,0.00
2023-05-24T00:34:57.352Z,0.00
2023-05-24T00:35:48.086Z,0.00
2023-05-24T00:36:38.878Z,0.00
2023-05-24T00:37:29.695Z,0.00
2023-05-24T00:38:20.439Z,0.00
2023-05-24T00:39:11.203Z,0.00
2023-05-24T00:40:01.992Z,0.00
2023-05-24T00:40:52.785Z,0.00
2023-05-24T00:41:43.579Z,0.00
2023-05-24T00:42:34.377Z,0.00
2023-05-24T00:43:25.156Z,0.00
2023-05-24T00:44:15.925Z,0.00
2023-05-24T00:45:06.708Z,0.00
2023-05-24T00:45:57.527Z,0.00
2023-05-24T00:46:48.287Z,0.00
2023-05-24T00:47:39.141Z,0.00
2023-05-24T00:48:29.902Z,0.00
2023-05-24T00:49:20.667Z,0.00
2023-05-24T00:50:11.469Z,0.00
2023-05-24T00:51:02.258Z,0.00
2023-05-24T00:51:53.036Z,0.00
2023-05-24T00:52:43.813Z,0.00
2023-05-24T00:53:35.073Z,0.00
2023-05-24T00:54:25.850Z,0.00
2023-05-24T00:55:16.649Z,0.00
2023-05-24T00:56:07.849Z,0.00
2023-05-24T00:56:58.650Z,0.00
2023-05-24T00:57:49.407Z,0.00
2023-05-24T00:58:40.183Z,0.00
2023-05-24T00:59:30.965Z,0.00
2023-05-24T01:00:21.752Z,0.00
2023-05-24T01:01:12.532Z,0.00
2023-05-24T01:02:03.631Z,0.00
2023-05-24T01:02:54.455Z,0.00
2023-05-24T01:03:45.372Z,0.00
2023-05-24T01:04:36.112Z,0.00
2023-05-24T01:05:26.924Z,0.00
2023-05-24T01:06:17.697Z,0.00
2023-05-24T01:07:08.472Z,0.00
2023-05-24T01:07:59.262Z,0.00
2023-05-24T01:08:50.051Z,0.00
2023-05-24T01:09:40.836Z,0.00
2023-05-24T01:10:31.590Z,0.00
2023-05-24T01:11:22.365Z,0.00
2023-05-24T01:12:13.154Z,0.00
2023-05-24T01:13:03.936Z,0.00
2023-05-24T01:13:54.712Z,0.00
2023-05-24T01:14:45.495Z,0.00
2023-05-24T01:15:36.301Z,0.00
2023-05-24T01:16:27.112Z,0.00
2023-05-24T01:17:17.976Z,0.00
2023-05-24T01:18:08.860Z,0.00
2023-05-24T01:18:59.584Z,0.00
2023-05-24T01:19:50.388Z,0.00
2023-05-24T01:20:41.507Z,0.00
2023-05-24T01:21:32.456Z,0.00
2023-05-24T01:22:23.230Z,0.00
2023-05-24T01:23:14.022Z,0.00
2023-05-24T01:24:04.842Z,0.00
2023-05-24T01:24:55.572Z,0.00
2023-05-24T01:25:46.354Z,0.00
2023-05-24T01:26:37.155Z,0.00
2023-05-24T01:27:27.933Z,0.00
2023-05-24T01:28:18.726Z,0.00
2023-05-24T01:29:09.527Z,0.00
2023-05-24T01:30:00.305Z,0.00
2023-05-24T01:30:51.103Z,0.00
2023-05-24T01:31:41.913Z,0.00
2023-05-24T01:32:32.749Z,0.00
2023-05-24T01:33:23.520Z,0.00
2023-05-24T01:34:14.291Z,0.00
2023-05-24T01:35:05.079Z,0.00
2023-05-24T01:35:55.885Z,0.00
2023-05-24T01:36:46.655Z,0.00
2023-05-24T01:37:37.414Z,0.00
2023-05-24T01:38:28.198Z,0.00
2023-05-24T01:39:18.978Z,0.00
2023-05-24T01:40:09.755Z,0.00
2023-05-24T01:41:00.531Z,0.00
2023-05-24T01:41:51.319Z,0.00
2023-05-24T01:42:42.101Z,0.00
2023-05-24T01:43:32.884Z,0.00
2023-05-24T01:44:23.663Z,0.00
2023-05-24T01:45:14.450Z,0.00
2023-05-24T01:46:05.233Z,0.00
2023-05-24T01:46:56.077Z,0.00
2023-05-24T01:47:46.867Z,0.00
2023-05-24T01:48:37.636Z,0.00
2023-05-24T01:49:28.416Z,0.00
2023-05-24T01:50:19.200Z,0.00
2023-05-24T01:51:10.053Z,0.00
2023-05-24T01:52:00.816Z,0.00
2023-05-24T01:52:51.550Z,0.00
2023-05-24T01:53:42.353Z,0.00
2023-05-24T01:54:33.097Z,0.00
2023-05-24T01:55:23.883Z,0.00
2023-05-24T01:56:14.662Z,0.00
2023-05-24T01:57:05.450Z,0.00
2023-05-24T01:57:56.298Z,0.00
2023-05-24T01:58:47.090Z,0.00
2023-05-24T01:59:37.852Z,0.00
2023-05-24T02:00:28.652Z,0.00
2023-05-24T02:01:19.523Z,0.00
2023-05-24T02:02:10.312Z,0.00
2023-05-24T02:03:01.135Z,0.00
2023-05-24T02:03:51.934Z,0.00
2023-05-24T02:04:42.743Z,0.00
2023-05-24T02:05:33.539Z,0.00
2023-05-24T02:06:24.337Z,0.00
2023-05-24T02:07:15.109Z,0.00
2023-05-24T02:08:05.891Z,0.00
2023-05-24T02:08:56.682Z,0.00
2023-05-24T02:09:47.444Z,0.00
2023-05-24T02:10:38.226Z,0.00
2023-05-24T02:11:28.971Z,0.00
2023-05-24T02:12:19.720Z,0.00
2023-05-24T02:13:10.899Z,0.00
2023-05-24T02:14:01.566Z,0.00
2023-05-24T02:14:52.695Z,0.00
2023-05-24T02:15:43.504Z,0.00
2023-05-24T02:16:34.784Z,0.00
2023-05-24T02:17:25.502Z,0.00
2023-05-24T02:18:16.650Z,1.00
2023-05-24T02:19:07.724Z,0.00
2023-05-24T02:19:58.909Z,0.00
2023-05-24T02:20:49.708Z,1.00
2023-05-24T02:21:40.796Z,0.00
2023-05-24T02:22:32.003Z,0.00
2023-05-24T02:23:22.761Z,0.00
2023-05-24T02:24:13.535Z,0.00
2023-05-24T02:25:04.439Z,0.00
2023-05-24T02:25:55.190Z,0.00
2023-05-24T02:26:45.964Z,0.00
2023-05-24T02:27:36.722Z,0.00
2023-05-24T02:28:27.482Z,0.00
2023-05-24T02:29:18.242Z,0.00
2023-05-24T02:30:09.003Z,0.00
2023-05-24T02:30:59.790Z,0.00
2023-05-24T02:31:50.520Z,0.00
2023-05-24T02:32:41.310Z,0.00
2023-05-24T02:33:32.080Z,0.00
2023-05-24T02:34:22.836Z,0.00
2023-05-24T02:35:13.613Z,0.00
2023-05-24T02:36:04.392Z,0.00
2023-05-24T02:36:55.170Z,0.00
2023-05-24T02:37:45.708Z,1.00
2023-05-24T02:38:36.626Z,1.00
2023-05-24T02:39:27.529Z,1.00
2023-05-24T02:40:18.377Z,1.00
2023-05-24T02:41:09.274Z,1.00
2023-05-24T02:42:00.175Z,1.00
2023-05-24T02:42:51.006Z,1.00
2023-05-24T02:43:41.886Z,1.00
2023-05-24T02:44:32.748Z,2.00
2023-05-24T02:45:23.879Z,0.00
2023-05-24T02:46:14.802Z,0.00
2023-05-24T02:47:05.580Z,0.00
2023-05-24T02:47:56.414Z,0.00
2023-05-24T02:48:47.224Z,0.00
2023-05-24T02:49:38.015Z,0.00
2023-05-24T02:50:29.067Z,2.00
2023-05-24T02:51:19.927Z,2.00
2023-05-24T02:52:10.852Z,1.00
2023-05-24T02:53:01.693Z,1.00
2023-05-24T02:53:52.550Z,1.00
2023-05-24T02:54:43.708Z,3.00
2023-05-24T02:55:34.934Z,0.00
2023-05-24T02:56:25.803Z,6.00
2023-05-24T02:57:16.928Z,3.00
2023-05-24T02:58:07.799Z,3.00
2023-05-24T02:58:58.693Z,3.00
2023-05-24T02:59:49.861Z,2.00
2023-05-24T03:00:40.866Z,2.00
2023-05-24T03:01:31.917Z,2.00
2023-05-24T03:02:22.799Z,4.00
2023-05-24T03:03:13.718Z,4.00
2023-05-24T03:04:04.666Z,4.00
2023-05-24T03:04:55.476Z,6.00
2023-05-24T03:05:46.342Z,4.00
2023-05-24T03:06:37.201Z,2.00
2023-05-24T03:07:28.092Z,2.00
2023-05-24T03:08:18.947Z,7.00
2023-05-24T03:09:09.855Z,4.00
2023-05-24T03:10:00.688Z,5.00
2023-05-24T03:10:51.535Z,8.00
2023-05-24T03:11:42.403Z,9.00
2023-05-24T03:12:33.283Z,10.00
2023-05-24T03:13:24.169Z,5.00
2023-05-24T03:14:15.019Z,7.00
2023-05-24T03:15:05.881Z,6.00
2023-05-24T03:15:56.798Z,8.00
2023-05-24T03:16:47.657Z,8.00
2023-05-24T03:17:38.587Z,7.00
2023-05-24T03:18:29.439Z,7.00
2023-05-24T03:19:20.282Z,9.00
2023-05-24T03:20:11.225Z,9.00
2023-05-24T03:21:02.068Z,8.00
2023-05-24T03:21:52.929Z,11.00
2023-05-24T03:22:43.826Z,11.00
2023-05-24T03:23:34.685Z,13.00
2023-05-24T03:24:25.537Z,8.00
2023-05-24T03:25:16.428Z,8.00
2023-05-24T03:26:07.270Z,8.00
2023-05-24T03:26:58.158Z,8.00
2023-05-24T03:27:49.027Z,11.00
2023-05-24T03:28:39.898Z,16.00
2023-05-24T03:29:30.787Z,16.00
2023-05-24T03:30:21.679Z,21.00
2023-05-24T03:31:12.619Z,17.00
2023-05-24T03:32:03.562Z,16.00
2023-05-24T03:32:54.517Z,17.00
2023-05-24T03:33:45.376Z,15.00
2023-05-24T03:34:36.257Z,15.00
2023-05-24T03:35:27.176Z,13.00
2023-05-24T03:36:18.057Z,15.00
2023-05-24T03:37:08.944Z,14.00
2023-05-24T03:37:59.850Z,15.00
2023-05-24T03:38:50.737Z,18.00
2023-05-24T03:39:41.571Z,19.00
2023-05-24T03:40:32.461Z,20.00
2023-05-24T03:41:23.321Z,24.00
2023-05-24T03:42:14.212Z,25.00
2023-05-24T03:43:05.091Z,24.00
2023-05-24T03:43:55.966Z,30.00
2023-05-24T03:44:46.861Z,33.00
2023-05-24T03:45:39.866Z,29.00
2023-05-24T03:46:28.677Z,42.00
2023-05-24T03:47:19.525Z,43.00
2023-05-24T03:48:10.396Z,43.00
2023-05-24T03:49:01.250Z,46.00
2023-05-24T03:49:52.134Z,42.00
2023-05-24T03:50:43.242Z,52.00
2023-05-24T03:51:33.627Z,57.00
2023-05-24T03:52:24.543Z,63.00
2023-05-24T03:53:15.436Z,74.00
2023-05-24T03:54:06.312Z,72.00
2023-05-24T03:54:57.198Z,82.00
2023-05-24T03:55:48.079Z,88.00
2023-05-24T03:56:38.965Z,93.00
2023-05-24T03:57:29.855Z,88.00
2023-05-24T03:58:20.733Z,92.00
2023-05-24T03:59:11.601Z,79.00
2023-05-24T04:00:02.501Z,62.00
2023-05-24T04:00:53.368Z,61.00
2023-05-24T04:01:44.238Z,60.00
2023-05-24T04:02:35.207Z,60.00
2023-05-24T04:03:26.363Z,66.00
2023-05-24T04:04:16.678Z,59.00
2023-05-24T04:05:07.541Z,59.00
2023-05-24T04:05:58.431Z,64.00
2023-05-24T04:06:49.298Z,59.00
2023-05-24T04:07:40.191Z,67.00
2023-05-24T04:08:31.091Z,75.00
2023-05-24T04:09:21.956Z,81.00
2023-05-24T04:10:12.840Z,90.00
2023-05-24T04:11:03.719Z,86.00
2023-05-24T04:11:54.619Z,78.00
2023-05-24T04:12:45.520Z,68.00
2023-05-24T04:13:36.400Z,68.00
2023-05-24T04:14:27.282Z,68.00
2023-05-24T04:15:18.168Z,71.00
2023-05-24T04:16:09.047Z,72.00
2023-05-24T04:17:00.050Z,75.00
2023-05-24T04:17:51.032Z,75.00
2023-05-24T04:18:41.988Z,67.00
2023-05-24T04:19:32.859Z,60.00
2023-05-24T04:20:23.748Z,54.00
2023-05-24T04:21:14.614Z,56.00
2023-05-24T04:22:05.499Z,64.00
2023-05-24T04:22:56.460Z,66.00
2023-05-24T04:23:47.326Z,69.00
2023-05-24T04:24:38.226Z,72.00
2023-05-24T04:25:29.056Z,67.00
2023-05-24T04:26:19.943Z,63.00
2023-05-24T04:27:10.829Z,62.00
2023-05-24T04:28:01.702Z,56.00
2023-05-24T04:28:52.604Z,56.00
2023-05-24T04:29:43.469Z,55.00
2023-05-24T04:30:34.368Z,62.00
2023-05-24T04:31:25.253Z,54.00
2023-05-24T04:32:16.140Z,54.00
2023-05-24T04:33:07.048Z,61.00
2023-05-24T04:33:57.910Z,43.00
2023-05-24T04:34:48.776Z,57.00
2023-05-24T04:35:39.659Z,54.00
2023-05-24T04:36:30.550Z,47.00
2023-05-24T04:37:21.434Z,48.00
2023-05-24T04:38:12.318Z,54.00
2023-05-24T04:39:03.242Z,51.00
2023-05-24T04:39:54.061Z,51.00
2023-05-24T04:40:45.154Z,56.00
2023-05-24T04:41:36.027Z,61.00
2023-05-24T04:42:26.922Z,61.00
2023-05-24T04:43:17.801Z,68.00
2023-05-24T04:44:08.674Z,69.00
2023-05-24T04:44:59.540Z,60.00
2023-05-24T04:45:50.435Z,57.00
2023-05-24T04:46:41.332Z,58.00
2023-05-24T04:47:32.211Z,65.00
2023-05-24T04:48:23.069Z,74.00
2023-05-24T04:49:13.953Z,78.00
2023-05-24T04:50:04.850Z,82.00
2023-05-24T04:50:55.726Z,76.00
2023-05-24T04:51:46.614Z,79.00
2023-05-24T04:52:37.496Z,76.00
2023-05-24T04:53:28.380Z,77.00
2023-05-24T04:54:19.277Z,70.00
2023-05-24T04:55:10.132Z,70.00
2023-05-24T04:56:01.005Z,75.00
2023-05-24T04:56:51.870Z,82.00
2023-05-24T04:57:42.773Z,87.00
2023-05-24T04:58:33.635Z,92.00
2023-05-24T04:59:24.522Z,100.00
2023-05-24T05:00:15.447Z,109.00
2023-05-24T05:01:06.302Z,124.00
2023-05-24T05:01:57.246Z,123.00
2023-05-24T05:02:48.265Z,125.00
2023-05-24T05:03:39.192Z,109.00
2023-05-24T05:04:30.111Z,109.00
2023-05-24T05:05:20.997Z,103.00
2023-05-24T05:06:11.906Z,112.00
2023-05-24T05:07:02.801Z,116.00
2023-05-24T05:07:53.719Z,126.00
2023-05-24T05:08:44.620Z,134.00
2023-05-24T05:09:35.538Z,131.00
2023-05-24T05:10:26.404Z,142.00
2023-05-24T05:11:17.322Z,143.00
2023-05-24T05:12:08.234Z,153.00
2023-05-24T05:12:59.124Z,155.00
2023-05-24T05:13:50.036Z,139.00
2023-05-24T05:14:40.935Z,158.00
2023-05-24T05:15:31.837Z,164.00
2023-05-24T05:16:22.873Z,193.00
2023-05-24T05:17:13.742Z,202.00
2023-05-24T05:18:04.679Z,207.00
2023-05-24T05:18:55.567Z,180.00
2023-05-24T05:19:46.489Z,192.00
2023-05-24T05:20:37.426Z,178.00
2023-05-24T05:21:28.315Z,181.00
2023-05-24T05:22:19.226Z,196.00
2023-05-24T05:23:10.137Z,209.00
2023-05-24T05:24:01.048Z,233.00
2023-05-24T05:24:51.955Z,256.00
2023-05-24T05:25:42.857Z,277.00
2023-05-24T05:26:33.802Z,261.00
2023-05-24T05:27:24.720Z,262.00
2023-05-24T05:28:15.632Z,247.00
2023-05-24T05:29:06.576Z,226.00
2023-05-24T05:29:57.442Z,239.00
2023-05-24T05:30:48.343Z,252.00
2023-05-24T05:31:39.251Z,255.00
2023-05-24T05:32:30.330Z,252.00
2023-05-24T05:33:21.265Z,238.00
2023-05-24T05:34:12.140Z,239.00
2023-05-24T05:35:03.059Z,264.00
2023-05-24T05:35:54.932Z,288.00
2023-05-24T05:36:44.761Z,270.00
2023-05-24T05:37:35.669Z,272.00
2023-05-24T05:38:26.592Z,272.00
2023-05-24T05:39:17.481Z,245.00
2023-05-24T05:40:08.404Z,226.00
2023-05-24T05:40:59.308Z,216.00
2023-05-24T05:41:50.208Z,216.00
2023-05-24T05:42:41.136Z,222.00
2023-05-24T05:43:32.050Z,230.00
2023-05-24T05:44:22.962Z,234.00
2023-05-24T05:45:13.886Z,223.00
2023-05-24T05:46:04.806Z,216.00
2023-05-24T05:46:55.708Z,201.00
2023-05-24T05:47:46.718Z,177.00
2023-05-24T05:48:37.619Z,171.00
2023-05-24T05:49:28.518Z,161.00
2023-05-24T05:50:19.413Z,151.00
2023-05-24T05:51:10.322Z,172.00
2023-05-24T05:52:01.238Z,173.00
2023-05-24T05:52:52.159Z,175.00
2023-05-24T05:53:43.072Z,171.00
2023-05-24T05:54:33.977Z,166.00
2023-05-24T05:55:24.894Z,181.00
2023-05-24T05:56:15.834Z,166.00
2023-05-24T05:57:06.723Z,161.00
2023-05-24T05:57:57.637Z,157.00
2023-05-24T05:58:48.551Z,154.00
2023-05-24T05:59:39.429Z,138.00
2023-05-24T06:00:30.352Z,138.00
2023-05-24T06:01:21.217Z,140.00
2023-05-24T06:02:12.107Z,147.00
2023-05-24T06:03:03.109Z,130.00
2023-05-24T06:03:54.077Z,121.00
2023-05-24T06:04:45.101Z,130.00
2023-05-24T06:05:35.983Z,134.00
2023-05-24T06:06:26.887Z,129.00
2023-05-24T06:07:17.784Z,124.00
2023-05-24T06:08:08.683Z,121.00
2023-05-24T06:08:59.569Z,117.00
2023-05-24T06:09:50.464Z,109.00
2023-05-24T06:10:41.694Z,107.00
2023-05-24T06:11:32.099Z,117.00
2023-05-24T06:12:23.001Z,122.00
2023-05-24T06:13:13.892Z,121.00
2023-05-24T06:14:04.771Z,119.00
2023-05-24T06:14:55.661Z,129.00
2023-05-24T06:15:46.651Z,134.00
2023-05-24T06:16:37.650Z,128.00
2023-05-24T06:17:28.550Z,125.00
2023-05-24T06:18:19.409Z,121.00
2023-05-24T06:19:10.297Z,107.00
2023-05-24T06:20:01.275Z,101.00
2023-05-24T06:20:52.134Z,112.00
2023-05-24T06:21:43.017Z,125.00
2023-05-24T06:22:33.907Z,143.00
2023-05-24T06:23:24.819Z,153.00
2023-05-24T06:24:15.748Z,152.00
2023-05-24T06:25:06.630Z,145.00
2023-05-24T06:25:57.551Z,146.00
2023-05-24T06:26:48.440Z,140.00
2023-05-24T06:27:39.323Z,144.00
2023-05-24T06:28:30.218Z,140.00
2023-05-24T06:29:21.110Z,143.00
2023-05-24T06:30:12.112Z,140.00
2023-05-24T06:31:02.982Z,133.00
2023-05-24T06:31:53.970Z,134.00
2023-05-24T06:32:44.913Z,130.00
2023-05-24T06:33:37.880Z,119.00
2023-05-24T06:34:26.718Z,116.00
2023-05-24T06:35:17.627Z,104.00
2023-05-24T06:36:08.509Z,96.00
2023-05-24T06:36:59.406Z,108.00
2023-05-24T06:37:50.307Z,126.00
2023-05-24T06:38:41.218Z,153.00
2023-05-24T06:39:32.114Z,177.00
2023-05-24T06:40:23.016Z,209.00
2023-05-24T06:41:14.050Z,247.00
2023-05-24T06:42:04.897Z,300.00
2023-05-24T06:42:55.795Z,339.00
2023-05-24T06:43:46.695Z,381.00
2023-05-24T06:44:37.612Z,417.00
2023-05-24T06:45:28.514Z,442.00
2023-05-24T06:46:19.445Z,485.00
2023-05-24T06:47:10.403Z,526.00
2023-05-24T06:48:01.346Z,530.00
2023-05-24T06:48:52.369Z,526.00
2023-05-24T06:49:43.255Z,532.00
2023-05-24T06:50:34.161Z,566.00
2023-05-24T06:51:25.096Z,619.00
2023-05-24T06:52:15.957Z,731.00
2023-05-24T06:53:06.859Z,845.00
2023-05-24T06:53:57.758Z,905.00
2023-05-24T06:54:48.674Z,922.00
2023-05-24T06:55:39.596Z,923.00
2023-05-24T06:56:30.530Z,895.00
2023-05-24T06:57:21.411Z,880.00
2023-05-24T06:58:12.330Z,892.00
2023-05-24T06:59:03.246Z,977.00
2023-05-24T06:59:54.172Z,1008.00
2023-05-24T07:00:45.512Z,1070.00
2023-05-24T07:01:35.963Z,1097.00
2023-05-24T07:02:26.857Z,1094.00
2023-05-24T07:03:17.754Z,1097.00
2023-05-24T07:04:08.700Z,1113.00
2023-05-24T07:04:59.723Z,1057.00
2023-05-24T07:05:50.620Z,1008.00
2023-05-24T07:06:41.542Z,987.00
2023-05-24T07:07:32.443Z,835.00
2023-05-24T07:08:23.334Z,647.00
2023-05-24T07:09:14.233Z,521.00
2023-05-24T07:10:05.285Z,450.00
2023-05-24T07:10:56.139Z,419.00
2023-05-24T07:11:47.143Z,402.00
2023-05-24T07:12:37.985Z,359.00
2023-05-24T07:13:28.895Z,320.00
2023-05-24T07:14:19.818Z,302.00
2023-05-24T07:15:10.734Z,293.00
2023-05-24T07:16:01.644Z,289.00
2023-05-24T07:16:52.613Z,276.00
2023-05-24T07:17:43.553Z,270.00
2023-05-24T07:18:34.428Z,281.00
2023-05-24T07:19:25.339Z,282.00
2023-05-24T07:20:16.322Z,270.00
2023-05-24T07:21:07.185Z,250.00
2023-05-24T07:21:58.084Z,229.00
2023-05-24T07:22:49.003Z,208.00
2023-05-24T07:23:39.901Z,190.00
2023-05-24T07:24:30.817Z,182.00
2023-05-24T07:25:21.740Z,174.00
2023-05-24T07:26:12.649Z,166.00
2023-05-24T07:27:03.580Z,170.00
2023-05-24T07:27:54.476Z,176.00
2023-05-24T07:28:45.376Z,173.00
2023-05-24T07:29:36.288Z,175.00
2023-05-24T07:30:32.202Z,186.00
2023-05-24T07:31:19.116Z,193.00
2023-05-24T07:32:08.847Z,207.00
2023-05-24T07:32:59.814Z,215.00
2023-05-24T07:33:50.758Z,232.00
2023-05-24T07:34:41.664Z,224.00
2023-05-24T07:35:32.581Z,211.00
2023-05-24T07:36:23.479Z,189.00
2023-05-24T07:37:14.396Z,179.00
2023-05-24T07:38:05.309Z,171.00
2023-05-24T07:38:56.229Z,177.00
2023-05-24T07:39:47.143Z,179.00
2023-05-24T07:40:38.050Z,188.00
2023-05-24T07:41:28.963Z,196.00
2023-05-24T07:42:19.924Z,201.00
2023-05-24T07:43:10.800Z,201.00
2023-05-24T07:44:01.743Z,204.00
2023-05-24T07:44:52.630Z,207.00
2023-05-24T07:45:43.789Z,199.00
2023-05-24T07:46:34.204Z,195.00
2023-05-24T07:47:25.112Z,195.00
2023-05-24T07:48:16.100Z,202.00
2023-05-24T07:49:07.040Z,205.00
2023-05-24T07:49:57.946Z,212.00
2023-05-24T07:50:48.920Z,235.00
2023-05-24T07:51:39.771Z,249.00
2023-05-24T07:52:30.683Z,262.00
2023-05-24T07:53:21.581Z,268.00
2023-05-24T07:54:12.501Z,269.00
2023-05-24T07:55:03.398Z,283.00
2023-05-24T07:55:54.302Z,298.00
2023-05-24T07:56:45.213Z,309.00
2023-05-24T07:57:36.130Z,332.00
2023-05-24T07:58:27.011Z,346.00
2023-05-24T07:59:17.925Z,364.00
2023-05-24T08:00:08.835Z,372.00
2023-05-24T08:00:59.735Z,386.00
2023-05-24T08:01:50.643Z,412.00
2023-05-24T08:02:41.662Z,448.00
2023-05-24T08:03:32.683Z,474.00
2023-05-24T08:04:23.579Z,508.00
2023-05-24T08:05:14.496Z,567.00
2023-05-24T08:06:05.392Z,620.00
2023-05-24T08:06:56.319Z,623.00
2023-05-24T08:07:47.209Z,601.00
2023-05-24T08:08:38.107Z,560.00
2023-05-24T08:09:29.028Z,549.00
2023-05-24T08:10:19.948Z,564.00
2023-05-24T08:11:10.868Z,607.00
2023-05-24T08:12:01.761Z,663.00
2023-05-24T08:12:52.771Z,708.00
2023-05-24T08:13:43.606Z,793.00
2023-05-24T08:14:34.533Z,921.00
2023-05-24T08:15:25.493Z,1034.00
2023-05-24T08:16:16.483Z,1135.00
2023-05-24T08:17:07.335Z,1189.00
2023-05-24T08:17:58.335Z,1079.00
2023-05-24T08:18:49.205Z,886.00
2023-05-24T08:19:40.132Z,726.00
2023-05-24T08:20:31.053Z,587.00
2023-05-24T08:21:21.945Z,485.00
2023-05-24T08:22:12.874Z,402.00
2023-05-24T08:23:03.783Z,361.00
2023-05-24T08:23:54.705Z,333.00
2023-05-24T08:24:45.629Z,328.00
2023-05-24T08:25:36.514Z,324.00
2023-05-24T08:26:27.407Z,324.00
2023-05-24T08:27:18.313Z,329.00
2023-05-24T08:28:09.253Z,348.00
2023-05-24T08:29:00.123Z,388.00
2023-05-24T08:29:51.037Z,430.00
2023-05-24T08:30:41.945Z,472.00
2023-05-24T08:31:32.885Z,519.00
2023-05-24T08:32:24.027Z,560.00
2023-05-24T08:33:14.965Z,601.00
2023-05-24T08:34:05.859Z,634.00
2023-05-24T08:35:06.678Z,629.00
2023-05-24T08:35:48.685Z,629.00
2023-05-24T08:36:38.387Z,638.00
2023-05-24T08:37:29.307Z,657.00
2023-05-24T08:38:20.232Z,685.00
2023-05-24T08:39:11.113Z,704.00
2023-05-24T08:40:02.012Z,715.00
2023-05-24T08:40:52.927Z,710.00
2023-05-24T08:41:47.414Z,676.00
2023-05-24T08:42:35.760Z,639.00
2023-05-24T08:43:25.452Z,583.00
2023-05-24T08:44:16.337Z,530.00
2023-05-24T08:45:07.258Z,491.00
2023-05-24T08:45:58.181Z,457.00
2023-05-24T08:46:49.098Z,422.00
2023-05-24T08:47:40.089Z,391.00
2023-05-24T08:48:31.185Z,368.00
2023-05-24T08:49:21.895Z,349.00
2023-05-24T08:50:12.833Z,340.00
2023-05-24T08:51:03.727Z,358.00
2023-05-24T08:51:54.660Z,377.00
2023-05-24T08:52:45.591Z,387.00
2023-05-24T08:53:36.450Z,392.00
2023-05-24T08:54:27.377Z,388.00
2023-05-24T08:55:18.278Z,382.00
2023-05-24T08:56:09.226Z,377.00
2023-05-24T08:57:00.140Z,371.00
2023-05-24T08:57:51.045Z,367.00
2023-05-24T08:58:41.978Z,370.00
2023-05-24T08:59:32.863Z,382.00
2023-05-24T09:00:23.784Z,401.00
2023-05-24T09:01:14.752Z,414.00
2023-05-24T09:02:05.820Z,421.00
2023-05-24T09:02:56.841Z,437.00
2023-05-24T09:03:47.834Z,458.00
2023-05-24T09:04:38.749Z,493.00
2023-05-24T09:05:29.650Z,526.00
2023-05-24T09:06:20.610Z,566.00
2023-05-24T09:07:11.524Z,604.00
2023-05-24T09:08:02.425Z,625.00
2023-05-24T09:08:53.332Z,648.00
2023-05-24T09:09:44.233Z,669.00
2023-05-24T09:10:49.382Z,687.00
2023-05-24T09:11:27.042Z,692.00
2023-05-24T09:12:21.849Z,691.00
2023-05-24T09:13:08.651Z,674.00
2023-05-24T09:13:58.358Z,667.00
2023-05-24T09:14:49.360Z,673.00
2023-05-24T09:15:40.531Z,674.00
2023-05-24T09:16:31.524Z,678.00
2023-05-24T09:17:22.403Z,685.00
2023-05-24T09:18:13.391Z,685.00
2023-05-24T09:19:04.283Z,672.00
2023-05-24T09:19:55.204Z,664.00
2023-05-24T09:20:46.609Z,656.00
2023-05-24T09:21:37.096Z,659.00
2023-05-24T09:22:28.013Z,670.00
2023-05-24T09:23:18.928Z,696.00
2023-05-24T09:24:09.834Z,711.00
2023-05-24T09:25:00.749Z,725.00
2023-05-24T09:25:51.730Z,750.00
2023-05-24T09:26:42.618Z,795.00
2023-05-24T09:27:33.532Z,834.00
2023-05-24T09:28:24.439Z,859.00
2023-05-24T09:29:15.401Z,838.00
2023-05-24T09:30:06.294Z,812.00
2023-05-24T09:30:57.193Z,770.00
2023-05-24T09:31:48.226Z,707.00
2023-05-24T09:32:39.195Z,675.00
2023-05-24T09:33:30.048Z,629.00
2023-05-24T09:34:20.944Z,595.00
2023-05-24T09:35:11.851Z,555.00
2023-05-24T09:36:02.778Z,515.00
2023-05-24T09:36:53.676Z,451.00
2023-05-24T09:37:44.592Z,408.00
2023-05-24T09:38:35.504Z,395.00
2023-05-24T09:39:26.420Z,430.00
2023-05-24T09:40:17.322Z,484.00
2023-05-24T09:41:08.231Z,536.00
2023-05-24T09:41:59.122Z,584.00
2023-05-24T09:42:50.024Z,681.00
2023-05-24T09:43:40.940Z,640.00
2023-05-24T09:44:31.891Z,644.00
2023-05-24T09:45:22.790Z,653.00
2023-05-24T09:46:13.695Z,673.00
2023-05-24T09:47:04.628Z,703.00
2023-05-24T09:47:55.634Z,730.00
2023-05-24T09:48:46.525Z,762.00
2023-05-24T09:49:37.424Z,824.00
2023-05-24T09:50:28.317Z,886.00
2023-05-24T09:51:19.275Z,957.00
2023-05-24T09:52:10.222Z,1016.00
2023-05-24T09:53:01.201Z,1075.00
2023-05-24T09:53:52.119Z,1120.00
2023-05-24T09:54:42.721Z,1136.00
2023-05-24T09:55:33.639Z,1141.00
2023-05-24T09:56:24.575Z,1098.00
2023-05-24T09:57:15.510Z,1034.00
2023-05-24T09:58:06.483Z,972.00
2023-05-24T09:58:57.364Z,922.00
2023-05-24T09:59:48.290Z,900.00
2023-05-24T10:00:39.289Z,885.00
2023-05-24T10:01:30.251Z,877.00
2023-05-24T10:02:21.195Z,880.00
2023-05-24T10:03:12.390Z,894.00
2023-05-24T10:04:04.800Z,912.00
2023-05-24T10:04:54.233Z,941.00
2023-05-24T10:05:44.702Z,970.00
2023-05-24T10:06:35.748Z,1015.00
2023-05-24T10:07:26.675Z,1044.00
2023-05-24T10:08:17.602Z,1100.00
2023-05-24T10:09:08.519Z,1121.00
2023-05-24T10:09:59.449Z,1083.00
2023-05-24T10:10:50.368Z,1034.00
2023-05-24T10:11:41.316Z,955.00
2023-05-24T10:12:32.229Z,896.00
2023-05-24T10:13:23.166Z,853.00
2023-05-24T10:14:14.065Z,803.00
2023-05-24T10:15:04.993Z,748.00
2023-05-24T10:15:55.860Z,700.00
2023-05-24T10:16:46.819Z,649.00
2023-05-24T10:17:37.711Z,606.00
2023-05-24T10:18:28.601Z,567.00
2023-05-24T10:19:19.530Z,547.00
2023-05-24T10:20:10.449Z,532.00
2023-05-24T10:21:01.599Z,526.00
2023-05-24T10:21:52.047Z,532.00
2023-05-24T10:22:42.946Z,541.00
2023-05-24T10:23:33.841Z,541.00
2023-05-24T10:24:24.721Z,543.00
2023-05-24T10:25:15.621Z,539.00
2023-05-24T10:26:06.630Z,540.00
2023-05-24T10:26:57.511Z,546.00
2023-05-24T10:27:48.446Z,557.00
2023-05-24T10:28:39.356Z,565.00
2023-05-24T10:29:30.265Z,580.00
2023-05-24T10:30:21.241Z,570.00
2023-05-24T10:31:12.148Z,555.00
2023-05-24T10:32:03.031Z,532.00
2023-05-24T10:32:54.051Z,516.00
2023-05-24T10:33:44.951Z,500.00
2023-05-24T10:34:35.857Z,487.00
2023-05-24T10:35:26.770Z,475.00
2023-05-24T10:36:17.678Z,464.00
2023-05-24T10:37:08.575Z,454.00
2023-05-24T10:37:59.488Z,432.00
2023-05-24T10:38:50.425Z,420.00
2023-05-24T10:39:41.302Z,393.00
2023-05-24T10:40:32.233Z,364.00
2023-05-24T10:41:23.133Z,355.00
2023-05-24T10:42:14.074Z,346.00
2023-05-24T10:43:05.026Z,344.00
2023-05-24T10:44:08.686Z,339.00
2023-05-24T10:44:47.872Z,320.00
2023-05-24T10:45:37.730Z,309.00
2023-05-24T10:46:28.607Z,301.00
2023-05-24T10:47:19.457Z,301.00
2023-05-24T10:48:10.462Z,307.00
2023-05-24T10:49:01.392Z,310.00
2023-05-24T10:49:52.306Z,310.00